createdAt,value
2023-01-27T00:01:06.081Z,100.00
2023-01-27T00:03:33.981Z,100.00
2023-01-27T00:06:01.635Z,100.00
2023-01-27T00:08:32.213Z,100.00
2023-01-27T00:11:18.898Z,100.00
2023-01-27T00:13:46.321Z,100.00
2023-01-27T00:16:14.121Z,100.00
2023-01-27T00:18:41.902Z,100.00
2023-01-27T00:21:27.855Z,100.00
2023-01-27T00:24:14.483Z,100.00
2023-01-27T00:26:42.076Z,100.00
2023-01-27T00:29:09.844Z,100.00
2023-01-27T00:31:55.540Z,100.00
2023-01-27T00:34:23.214Z,100.00
2023-01-27T00:36:50.650Z,100.00
2023-01-27T00:39:18.092Z,100.00
2023-01-27T00:41:45.837Z,100.00
2023-01-27T00:44:13.517Z,100.00
2023-01-27T00:46:42.465Z,100.00
2023-01-27T00:49:11.251Z,100.00
2023-01-27T00:51:39.104Z,100.00
2023-01-27T00:54:06.676Z,100.00
2023-01-27T00:56:35.201Z,100.00
2023-01-27T00:59:02.657Z,100.00
2023-01-27T01:01:30.689Z,100.00
2023-01-27T01:03:59.857Z,100.00
2023-01-27T01:06:27.937Z,100.00
2023-01-27T01:08:57.109Z,100.00
2023-01-27T01:11:24.952Z,100.00
2023-01-27T01:13:55.598Z,100.00
2023-01-27T01:16:25.218Z,100.00
2023-01-27T01:18:54.170Z,100.00
2023-01-27T01:21:21.853Z,100.00
2023-01-27T01:23:49.566Z,100.00
2023-01-27T01:26:17.978Z,100.00
2023-01-27T01:28:46.159Z,100.00
2023-01-27T01:31:17.197Z,100.00
2023-01-27T01:33:45.898Z,100.00
2023-01-27T01:36:16.038Z,100.00
2023-01-27T01:38:44.099Z,100.00
2023-01-27T01:41:18.303Z,100.00
2023-01-27T01:43:48.619Z,100.00
2023-01-27T01:46:18.115Z,100.00
2023-01-27T01:48:54.190Z,100.00
2023-01-27T01:51:31.318Z,100.00
2023-01-27T01:54:05.552Z,100.00
2023-01-27T01:56:54.800Z,100.00
2023-01-27T01:59:30.888Z,100.00
2023-01-27T02:02:03.544Z,100.00
2023-01-27T02:04:42.485Z,100.00
2023-01-27T02:07:18.166Z,100.00
2023-01-27T02:09:45.900Z,100.00
2023-01-27T02:12:14.454Z,100.00
2023-01-27T02:14:42.285Z,100.00
2023-01-27T02:17:13.009Z,100.00
2023-01-27T02:20:10.870Z,100.00
2023-01-27T02:22:54.770Z,100.00
2023-01-27T02:25:34.180Z,100.00
2023-01-27T02:28:08.192Z,100.00
2023-01-27T02:30:37.088Z,100.00
2023-01-27T02:33:12.739Z,100.00
2023-01-27T02:35:52.310Z,100.00
2023-01-27T02:38:21.676Z,100.00
2023-01-27T02:40:54.601Z,100.00
2023-01-27T02:43:22.413Z,100.00
2023-01-27T02:45:49.836Z,100.00
2023-01-27T02:48:17.358Z,100.00
2023-01-27T02:50:45.321Z,100.00
2023-01-27T02:53:13.095Z,100.00
2023-01-27T02:55:40.581Z,100.00
2023-01-27T02:58:09.131Z,100.00
2023-01-27T03:00:37.116Z,100.00
2023-01-27T03:03:04.547Z,100.00
2023-01-27T03:05:32.240Z,100.00
2023-01-27T03:08:00.054Z,100.00
2023-01-27T03:10:27.545Z,100.00
2023-01-27T03:12:55.270Z,100.00
2023-01-27T03:15:41.718Z,100.00
2023-01-27T03:18:12.472Z,100.00
2023-01-27T03:20:41.045Z,100.00
2023-01-27T03:23:09.620Z,100.00
2023-01-27T03:25:41.323Z,100.00
2023-01-27T03:28:10.231Z,100.00
2023-01-27T03:30:38.809Z,100.00
2023-01-27T03:33:08.244Z,100.00
2023-01-27T03:35:48.558Z,100.00
2023-01-27T03:38:35.898Z,100.00
2023-01-27T03:41:23.274Z,100.00
2023-01-27T03:44:09.068Z,100.00
2023-01-27T03:46:36.777Z,100.00
2023-01-27T03:49:04.234Z,100.00
2023-01-27T03:51:31.635Z,100.00
2023-01-27T03:54:01.031Z,100.00
2023-01-27T03:56:28.509Z,100.00
2023-01-27T03:58:55.885Z,100.00
2023-01-27T04:01:24.514Z,100.00
2023-01-27T04:04:11.054Z,100.00
2023-01-27T04:06:58.941Z,100.00
2023-01-27T04:09:31.341Z,100.00
2023-01-27T04:12:01.961Z,99.58
2023-01-27T04:14:43.036Z,99.64
2023-01-27T04:17:17.143Z,99.59
2023-01-27T04:19:46.525Z,99.53
2023-01-27T04:22:16.293Z,99.29
2023-01-27T04:24:44.082Z,99.31
2023-01-27T04:27:13.908Z,99.48
2023-01-27T04:29:42.645Z,98.98
2023-01-27T04:32:12.443Z,99.19
2023-01-27T04:34:41.187Z,98.59
2023-01-27T04:37:09.959Z,98.60
2023-01-27T04:39:38.296Z,98.34
2023-01-27T04:42:06.134Z,98.48
2023-01-27T04:44:33.526Z,98.99
2023-01-27T04:47:01.041Z,98.04
2023-01-27T04:49:28.905Z,97.85
2023-01-27T04:51:56.359Z,98.19
2023-01-27T04:54:26.393Z,98.01
2023-01-27T04:57:00.117Z,97.39
2023-01-27T04:59:27.904Z,97.00
2023-01-27T05:01:56.343Z,97.47
2023-01-27T05:04:26.331Z,96.77
2023-01-27T05:06:54.605Z,97.12
2023-01-27T05:09:22.464Z,96.78
2023-01-27T05:11:50.392Z,96.93
2023-01-27T05:14:17.890Z,96.78
2023-01-27T05:16:45.799Z,96.96
2023-01-27T05:19:13.330Z,96.75
2023-01-27T05:21:40.857Z,96.51
2023-01-27T05:24:10.001Z,97.07
2023-01-27T05:26:37.452Z,97.03
2023-01-27T05:29:04.863Z,97.78
2023-01-27T05:31:33.435Z,96.25
2023-01-27T05:34:01.812Z,96.58
2023-01-27T05:36:29.985Z,96.63
2023-01-27T05:38:59.204Z,96.73
2023-01-27T05:41:31.030Z,97.10
2023-01-27T05:43:59.205Z,97.41
2023-01-27T05:46:29.949Z,97.21
2023-01-27T05:49:02.648Z,96.93
2023-01-27T05:51:35.725Z,97.33
2023-01-27T05:54:04.000Z,96.68
2023-01-27T05:56:32.403Z,97.04
2023-01-27T05:59:00.224Z,96.80
2023-01-27T06:01:30.868Z,97.15
2023-01-27T06:03:59.039Z,97.05
2023-01-27T06:06:28.393Z,97.66
2023-01-27T06:08:55.870Z,97.57
2023-01-27T06:11:24.906Z,95.98
2023-01-27T06:13:53.911Z,96.96
2023-01-27T06:16:23.096Z,97.16
2023-01-27T06:18:51.170Z,96.94
2023-01-27T06:21:20.436Z,96.97
2023-01-27T06:23:49.235Z,96.45
2023-01-27T06:26:20.371Z,96.22
2023-01-27T06:28:53.015Z,95.37
2023-01-27T06:31:22.158Z,95.83
2023-01-27T06:33:51.236Z,94.85
2023-01-27T06:36:20.486Z,95.01
2023-01-27T06:38:49.677Z,94.68
2023-01-27T06:41:17.761Z,95.16
2023-01-27T06:43:45.650Z,95.84
2023-01-27T06:46:15.064Z,95.46
2023-01-27T06:48:42.598Z,95.62
2023-01-27T06:51:10.830Z,96.82
2023-01-27T06:53:39.136Z,96.90
2023-01-27T06:56:08.152Z,97.00
2023-01-27T06:58:35.641Z,97.55
2023-01-27T07:01:06.002Z,98.10
2023-01-27T07:06:00.836Z,98.79
2023-01-27T07:08:28.654Z,98.66
2023-01-27T07:10:56.212Z,98.93
2023-01-27T07:13:23.751Z,98.80
2023-01-27T07:15:56.322Z,99.22
2023-01-27T07:18:24.177Z,98.86
2023-01-27T07:20:52.200Z,99.21
2023-01-27T07:23:20.100Z,98.59
2023-01-27T07:25:47.891Z,98.87
2023-01-27T07:28:15.684Z,98.62
2023-01-27T07:30:44.156Z,98.33
2023-01-27T07:33:14.021Z,98.13
2023-01-27T07:35:42.962Z,97.77
2023-01-27T07:38:11.002Z,97.12
2023-01-27T07:40:38.651Z,96.67
2023-01-27T07:43:06.708Z,97.94
2023-01-27T07:45:34.562Z,96.59
2023-01-27T07:48:04.129Z,96.89
2023-01-27T07:50:32.256Z,96.33
2023-01-27T07:53:01.373Z,96.46
2023-01-27T07:55:30.145Z,95.80
2023-01-27T07:57:58.326Z,95.17
2023-01-27T08:00:28.259Z,94.92
2023-01-27T08:02:57.980Z,95.54
2023-01-27T08:05:25.898Z,95.72
2023-01-27T08:07:56.610Z,95.20
2023-01-27T08:10:27.205Z,95.24
2023-01-27T08:12:54.795Z,95.26
2023-01-27T08:15:22.662Z,93.94
2023-01-27T08:17:57.746Z,93.38
2023-01-27T08:20:27.651Z,94.15
2023-01-27T08:22:55.888Z,92.80
2023-01-27T08:25:23.353Z,93.25
2023-01-27T08:27:52.381Z,92.00
2023-01-27T08:30:20.559Z,92.20
2023-01-27T08:32:48.712Z,92.63
2023-01-27T08:35:16.398Z,92.48
2023-01-27T08:37:44.269Z,92.38
2023-01-27T08:40:13.623Z,92.39
2023-01-27T08:42:41.333Z,91.27
2023-01-27T08:45:09.617Z,90.71
2023-01-27T08:47:37.097Z,91.50
2023-01-27T08:50:05.406Z,90.54
2023-01-27T08:52:33.273Z,90.49
2023-01-27T08:55:02.060Z,91.41
2023-01-27T08:57:32.385Z,90.62
2023-01-27T09:00:00.189Z,90.15
2023-01-27T09:02:27.745Z,89.60
2023-01-27T09:04:55.303Z,89.87
2023-01-27T09:07:23.186Z,88.17
2023-01-27T09:09:56.030Z,88.38
2023-01-27T09:12:28.994Z,87.67
2023-01-27T09:14:58.277Z,87.67
2023-01-27T09:17:25.914Z,87.29
2023-01-27T09:19:53.915Z,86.96
2023-01-27T09:22:21.477Z,88.00
2023-01-27T09:24:49.260Z,88.04
2023-01-27T09:27:18.115Z,86.59
2023-01-27T09:29:46.991Z,85.85
2023-01-27T09:32:14.868Z,86.49
2023-01-27T09:34:43.453Z,86.50
2023-01-27T09:37:12.884Z,87.56
2023-01-27T09:39:47.233Z,86.18
2023-01-27T09:42:32.573Z,87.68
2023-01-27T09:45:13.690Z,86.94
2023-01-27T09:48:08.093Z,87.95
2023-01-27T09:51:11.288Z,87.73
2023-01-27T09:54:07.941Z,88.43
2023-01-27T09:57:07.830Z,87.60
2023-01-27T09:59:42.294Z,88.15
2023-01-27T10:02:28.538Z,87.00
2023-01-27T10:05:28.068Z,87.73
2023-01-27T10:08:18.807Z,87.89
2023-01-27T10:11:14.919Z,87.24
2023-01-27T10:14:06.088Z,87.47
2023-01-27T10:16:58.081Z,86.27
2023-01-27T10:19:31.405Z,87.94
2023-01-27T10:22:12.110Z,88.70
2023-01-27T10:24:49.854Z,90.02
2023-01-27T10:27:24.845Z,90.84
2023-01-27T10:30:29.007Z,91.55
2023-01-27T10:33:01.999Z,91.12
2023-01-27T10:35:42.168Z,92.15
2023-01-27T10:38:18.914Z,91.81
2023-01-27T10:41:01.290Z,91.22
2023-01-27T10:43:55.075Z,91.99
2023-01-27T10:46:48.977Z,93.60
2023-01-27T10:49:25.997Z,94.14
2023-01-27T10:51:59.362Z,95.94
2023-01-27T10:54:42.081Z,97.37
2023-01-27T10:57:25.243Z,96.45
2023-01-27T11:00:33.968Z,97.38
2023-01-27T11:03:13.332Z,97.36
2023-01-27T11:05:49.333Z,97.64
2023-01-27T11:08:20.945Z,97.86
2023-01-27T11:11:12.841Z,98.49
2023-01-27T11:13:41.053Z,97.04
2023-01-27T11:16:18.720Z,97.95
2023-01-27T11:18:54.981Z,97.10
2023-01-27T11:21:27.596Z,98.32
2023-01-27T11:23:57.161Z,99.44
2023-01-27T11:26:44.632Z,99.76
2023-01-27T11:29:29.062Z,98.81
2023-01-27T11:32:08.599Z,99.79
2023-01-27T11:35:02.539Z,100.00
2023-01-27T11:37:40.306Z,100.00
2023-01-27T11:40:18.745Z,99.69
2023-01-27T11:42:47.266Z,98.90
2023-01-27T11:45:18.277Z,97.08
2023-01-27T11:47:49.632Z,96.81
2023-01-27T11:50:27.331Z,97.02
2023-01-27T11:53:17.029Z,97.65
2023-01-27T11:55:55.733Z,96.23
2023-01-27T11:58:32.253Z,96.40
2023-01-27T12:01:05.639Z,96.02
2023-01-27T12:03:57.149Z,97.28
2023-01-27T12:06:38.293Z,95.84
2023-01-27T12:09:06.228Z,96.46
2023-01-27T12:11:33.741Z,96.84
2023-01-27T12:14:03.647Z,96.66
2023-01-27T12:16:43.851Z,94.35
2023-01-27T12:19:32.115Z,95.66
2023-01-27T12:22:06.665Z,95.92
2023-01-27T12:24:42.138Z,96.18
2023-01-27T12:27:21.828Z,97.20
2023-01-27T12:29:55.606Z,98.34
2023-01-27T12:32:40.573Z,98.13
2023-01-27T12:35:38.353Z,99.95
2023-01-27T12:38:14.344Z,100.00
2023-01-27T12:40:44.700Z,99.88
2023-01-27T12:43:17.094Z,99.43
2023-01-27T12:45:45.053Z,99.70
2023-01-27T12:48:12.855Z,99.97
2023-01-27T12:50:42.370Z,100.00
2023-01-27T12:53:26.213Z,100.00
2023-01-27T12:55:57.692Z,100.00
2023-01-27T12:58:34.240Z,100.00
2023-01-27T13:01:06.297Z,100.00
2023-01-27T13:03:40.237Z,100.00
2023-01-27T13:06:08.681Z,100.00
2023-01-27T13:08:40.526Z,100.00
2023-01-27T13:11:08.815Z,99.71
2023-01-27T13:13:36.406Z,100.00
2023-01-27T13:16:17.900Z,100.00
2023-01-27T13:18:54.673Z,100.00
2023-01-27T13:21:26.678Z,100.00
2023-01-27T13:23:55.918Z,100.00
2023-01-27T13:26:30.662Z,100.00
2023-01-27T13:29:02.569Z,100.00
2023-01-27T13:31:48.562Z,100.00
2023-01-27T13:34:22.378Z,100.00
2023-01-27T13:36:58.237Z,100.00
2023-01-27T13:39:34.985Z,100.00
2023-01-27T13:42:05.887Z,100.00
2023-01-27T13:44:42.489Z,98.84
2023-01-27T13:47:18.873Z,98.39
2023-01-27T13:50:16.852Z,97.94
2023-01-27T13:52:50.387Z,98.66
2023-01-27T13:55:27.056Z,98.56
2023-01-27T13:58:05.326Z,99.20
2023-01-27T14:01:02.371Z,99.05
2023-01-27T14:03:47.678Z,100.00
2023-01-27T14:06:30.652Z,99.80
2023-01-27T14:09:24.119Z,99.68
2023-01-27T14:12:03.815Z,100.00
2023-01-27T14:14:58.143Z,100.00
2023-01-27T14:17:49.062Z,100.00
2023-01-27T14:20:38.562Z,100.00
2023-01-27T14:23:20.728Z,100.00
2023-01-27T14:26:21.196Z,100.00
2023-01-27T14:29:13.616Z,100.00
2023-01-27T14:31:56.602Z,100.00
2023-01-27T14:34:30.005Z,100.00
2023-01-27T14:37:11.284Z,100.00
2023-01-27T14:40:07.546Z,100.00
2023-01-27T14:42:42.194Z,100.00
2023-01-27T14:45:15.654Z,100.00
2023-01-27T14:47:51.792Z,100.00
2023-01-27T14:50:42.012Z,100.00
2023-01-27T14:53:24.750Z,100.00
2023-01-27T14:55:58.607Z,100.00
2023-01-27T14:59:16.066Z,100.00
2023-01-27T15:02:12.333Z,100.00
2023-01-27T15:05:03.741Z,100.00
2023-01-27T15:07:56.286Z,100.00
2023-01-27T15:10:25.367Z,100.00
2023-01-27T15:13:17.814Z,100.00
2023-01-27T15:15:59.796Z,100.00
2023-01-27T15:18:51.789Z,100.00
2023-01-27T15:21:46.441Z,100.00
2023-01-27T15:24:58.857Z,100.00
2023-01-27T15:27:27.621Z,100.00
2023-01-27T15:29:55.086Z,100.00
2023-01-27T15:32:28.475Z,100.00
2023-01-27T15:35:24.815Z,100.00
2023-01-27T15:38:10.572Z,100.00
2023-01-27T15:41:00.372Z,100.00
2023-01-27T15:43:30.127Z,100.00
2023-01-27T15:46:17.658Z,100.00
2023-01-27T15:48:46.024Z,100.00
2023-01-27T15:51:19.602Z,100.00
2023-01-27T15:53:54.805Z,100.00
2023-01-27T15:56:46.693Z,100.00
2023-01-27T15:59:57.191Z,100.00
2023-01-27T16:02:30.122Z,100.00
2023-01-27T16:05:29.449Z,100.00
2023-01-27T16:08:02.104Z,100.00
2023-01-27T16:10:35.470Z,100.00
2023-01-27T16:13:14.618Z,100.00
2023-01-27T16:15:42.520Z,100.00
2023-01-27T16:18:10.012Z,100.00
2023-01-27T16:20:49.627Z,100.00
2023-01-27T16:23:28.969Z,100.00
2023-01-27T16:26:34.962Z,100.00
2023-01-27T16:29:26.407Z,100.00
2023-01-27T16:32:05.930Z,100.00
2023-01-27T16:34:46.490Z,100.00
2023-01-27T16:37:23.784Z,100.00
2023-01-27T16:40:00.971Z,100.00
2023-01-27T16:42:33.113Z,100.00
2023-01-27T16:45:04.333Z,100.00
2023-01-27T16:47:47.266Z,100.00
2023-01-27T16:50:36.694Z,100.00
2023-01-27T16:53:08.533Z,100.00
2023-01-27T16:55:36.473Z,100.00
2023-01-27T16:58:04.118Z,100.00
2023-01-27T17:00:36.280Z,100.00
2023-01-27T17:03:13.845Z,100.00
2023-01-27T17:05:43.123Z,100.00
2023-01-27T17:08:25.709Z,100.00
2023-01-27T17:11:06.996Z,100.00
2023-01-27T17:13:45.207Z,100.00
2023-01-27T17:16:20.585Z,100.00
2023-01-27T17:18:52.795Z,100.00
2023-01-27T17:21:44.285Z,100.00
2023-01-27T17:24:18.240Z,100.00
2023-01-27T17:26:49.367Z,100.00
2023-01-27T17:29:21.509Z,100.00
2023-01-27T17:31:49.851Z,100.00
2023-01-27T17:34:21.349Z,100.00
2023-01-27T17:37:13.860Z,100.00
2023-01-27T17:39:42.770Z,100.00
2023-01-27T17:42:18.879Z,100.00
2023-01-27T17:44:48.087Z,100.00
2023-01-27T17:47:18.629Z,100.00
2023-01-27T17:49:49.044Z,100.00
2023-01-27T17:52:27.582Z,100.00
2023-01-27T17:54:55.799Z,100.00
2023-01-27T17:57:32.482Z,100.00
2023-01-27T18:00:11.688Z,100.00
2023-01-27T18:02:48.594Z,100.00
2023-01-27T18:05:26.038Z,100.00
2023-01-27T18:07:53.699Z,100.00
2023-01-27T18:10:36.130Z,100.00
2023-01-27T18:13:36.767Z,100.00
2023-01-27T18:16:24.426Z,100.00
2023-01-27T18:18:52.749Z,100.00
2023-01-27T18:21:27.719Z,100.00
2023-01-27T18:23:58.681Z,100.00
2023-01-27T18:26:41.802Z,100.00
2023-01-27T18:29:30.074Z,100.00
2023-01-27T18:32:07.724Z,100.00
2023-01-27T18:34:46.150Z,100.00
2023-01-27T18:37:27.403Z,100.00
2023-01-27T18:39:57.222Z,100.00
2023-01-27T18:42:27.395Z,100.00
2023-01-27T18:44:55.894Z,100.00
2023-01-27T18:47:35.187Z,100.00
2023-01-27T18:50:40.698Z,100.00
2023-01-27T18:53:19.944Z,100.00
2023-01-27T18:55:48.020Z,100.00
2023-01-27T18:58:17.945Z,100.00
2023-01-27T19:00:49.394Z,100.00
2023-01-27T19:03:23.156Z,100.00
2023-01-27T19:05:51.468Z,100.00
2023-01-27T19:08:22.524Z,100.00
2023-01-27T19:10:51.415Z,100.00
2023-01-27T19:13:20.023Z,100.00
2023-01-27T19:15:53.711Z,100.00
2023-01-27T19:18:24.981Z,100.00
2023-01-27T19:20:53.774Z,100.00
2023-01-27T19:23:22.206Z,100.00
2023-01-27T19:25:52.694Z,100.00
2023-01-27T19:28:24.008Z,100.00
2023-01-27T19:30:52.230Z,100.00
2023-01-27T19:33:22.843Z,100.00
2023-01-27T19:35:55.376Z,100.00
2023-01-27T19:38:26.415Z,100.00
2023-01-27T19:40:54.482Z,100.00
2023-01-27T19:43:22.033Z,100.00
2023-01-27T19:45:50.773Z,100.00
2023-01-27T19:48:21.613Z,100.00
2023-01-27T19:50:50.979Z,100.00
2023-01-27T19:53:20.254Z,100.00
2023-01-27T19:55:48.533Z,100.00
2023-01-27T19:58:22.365Z,100.00
2023-01-27T20:00:51.579Z,100.00
2023-01-27T20:03:19.872Z,100.00
2023-01-27T20:05:47.574Z,100.00
2023-01-27T20:08:19.066Z,100.00
2023-01-27T20:10:47.348Z,100.00
2023-01-27T20:13:16.703Z,100.00
2023-01-27T20:15:45.207Z,100.00
2023-01-27T20:18:15.132Z,100.00
2023-01-27T20:20:45.367Z,100.00
2023-01-27T20:23:16.204Z,100.00
2023-01-27T20:25:43.984Z,100.00
2023-01-27T20:28:12.440Z,100.00
2023-01-27T20:30:41.587Z,100.00
2023-01-27T20:33:10.203Z,100.00
2023-01-27T20:35:37.888Z,100.00
2023-01-27T20:38:05.890Z,100.00
2023-01-27T20:40:33.663Z,100.00
2023-01-27T20:43:02.293Z,100.00
2023-01-27T20:45:30.286Z,100.00
2023-01-27T20:47:59.472Z,100.00
2023-01-27T20:50:27.302Z,100.00
2023-01-27T20:52:55.127Z,100.00
2023-01-27T20:55:22.901Z,100.00
2023-01-27T20:57:51.018Z,100.00
2023-01-27T21:00:21.316Z,100.00
2023-01-27T21:02:49.891Z,100.00
2023-01-27T21:05:17.601Z,100.00
2023-01-27T21:07:45.674Z,100.00
2023-01-27T21:10:13.200Z,100.00
2023-01-27T21:12:43.250Z,100.00
2023-01-27T21:15:11.845Z,100.00
2023-01-27T21:17:40.000Z,100.00
2023-01-27T21:20:08.929Z,100.00
2023-01-27T21:22:36.732Z,100.00
2023-01-27T21:25:04.496Z,100.00
2023-01-27T21:27:32.078Z,100.00
2023-01-27T21:29:59.850Z,100.00
2023-01-27T21:32:27.425Z,100.00
2023-01-27T21:34:56.546Z,100.00
2023-01-27T21:37:24.390Z,100.00
2023-01-27T21:39:52.230Z,100.00
2023-01-27T21:42:38.357Z,100.00
2023-01-27T21:45:12.951Z,100.00
2023-01-27T21:47:41.166Z,100.00
2023-01-27T21:50:10.977Z,100.00
2023-01-27T21:52:43.996Z,100.00
2023-01-27T21:55:24.254Z,100.00
2023-01-27T21:57:53.618Z,100.00
2023-01-27T22:00:27.317Z,100.00
2023-01-27T22:03:00.408Z,100.00
2023-01-27T22:05:29.049Z,100.00
2023-01-27T22:07:57.613Z,100.00
2023-01-27T22:10:27.382Z,100.00
2023-01-27T22:13:00.087Z,100.00
2023-01-27T22:15:30.621Z,100.00
2023-01-27T22:17:59.115Z,100.00
2023-01-27T22:20:28.048Z,100.00
2023-01-27T22:22:56.160Z,100.00
2023-01-27T22:25:24.706Z,100.00
2023-01-27T22:27:55.123Z,100.00
2023-01-27T22:30:23.474Z,100.00
2023-01-27T22:32:51.145Z,100.00
2023-01-27T22:35:19.561Z,100.00
2023-01-27T22:37:49.111Z,100.00
2023-01-27T22:40:16.948Z,100.00
2023-01-27T22:42:45.087Z,100.00
2023-01-27T22:45:13.480Z,100.00
2023-01-27T22:47:41.181Z,100.00
2023-01-27T22:50:09.791Z,100.00
2023-01-27T22:52:38.743Z,100.00
2023-01-27T22:55:08.602Z,100.00
2023-01-27T22:57:36.091Z,100.00
2023-01-27T23:00:07.082Z,100.00
2023-01-27T23:02:36.117Z,100.00
2023-01-27T23:05:04.111Z,100.00
2023-01-27T23:07:31.666Z,100.00
2023-01-27T23:09:59.477Z,100.00
2023-01-27T23:12:27.210Z,100.00
2023-01-27T23:14:54.769Z,100.00
2023-01-27T23:17:22.212Z,100.00
2023-01-27T23:19:52.096Z,99.75
2023-01-27T23:22:19.697Z,99.56
2023-01-27T23:24:47.081Z,99.05
2023-01-27T23:27:14.879Z,99.56
2023-01-27T23:29:42.301Z,99.70
2023-01-27T23:32:10.009Z,99.31
2023-01-27T23:34:37.756Z,99.75
2023-01-27T23:37:05.292Z,99.88
2023-01-27T23:39:32.712Z,99.28
2023-01-27T23:42:00.400Z,99.34
2023-01-27T23:44:27.887Z,99.08
2023-01-27T23:46:55.251Z,98.91
2023-01-27T23:49:23.022Z,98.85
2023-01-27T23:51:50.728Z,98.60
2023-01-27T23:54:18.451Z,98.28
2023-01-27T23:56:46.165Z,98.80
2023-01-27T23:59:13.889Z,98.62
